Szeged, Hungary
Current Conditions -  °F | °C
As of 12:45 PM on Wednesday 26 Nov 2014 (Local Time) from LHUD Reporting Station
Haze Haze  
Wind Chill: 37°   Ceiling: 2600
Heat Index: 37°   Visibility: 2.5mi
Dew Point: 34°   Wind: 3mph
Humidity: 87%   Direction: 160°SSE
Pressure: 30.3"   Gusts: NA
Location:  46.26°N, 20.16°E
Report Text: LHUD 261045Z 16003KT 4000 BR BKN026 03/01 Q1026
Loading
Personal Weather Stations






























Interactive Weather Map New forecast layout! Learn more

10-Day Weather Forecast

Advertisements
Track Severe Weather on mobile